sensor_id;sensor_type;location;lat;lon;timestamp;temperature;humidity
68578;SHT31;61668;45.388;11.784;2023-04-01T00:00:51;10.05;83.31
68578;SHT31;61668;45.388;11.784;2023-04-01T00:03:19;10.02;83.41
68578;SHT31;61668;45.388;11.784;2023-04-01T00:05:45;10.00;83.50
68578;SHT31;61668;45.388;11.784;2023-04-01T00:08:11;9.96;83.50
68578;SHT31;61668;45.388;11.784;2023-04-01T00:10:37;9.93;83.58
68578;SHT31;61668;45.388;11.784;2023-04-01T00:13:03;9.90;83.60
68578;SHT31;61668;45.388;11.784;2023-04-01T00:15:30;9.87;83.59
68578;SHT31;61668;45.388;11.784;2023-04-01T00:17:56;9.84;83.66
68578;SHT31;61668;45.388;11.784;2023-04-01T00:20:22;9.82;83.73
68578;SHT31;61668;45.388;11.784;2023-04-01T00:22:50;9.80;83.80
68578;SHT31;61668;45.388;11.784;2023-04-01T00:25:16;9.77;83.79
68578;SHT31;61668;45.388;11.784;2023-04-01T00:27:42;9.76;83.75
68578;SHT31;61668;45.388;11.784;2023-04-01T00:30:08;9.73;83.69
68578;SHT31;61668;45.388;11.784;2023-04-01T00:32:35;9.70;83.61
68578;SHT31;61668;45.388;11.784;2023-04-01T00:35:01;9.67;83.71
68578;SHT31;61668;45.388;11.784;2023-04-01T00:37:27;9.65;83.81
68578;SHT31;61668;45.388;11.784;2023-04-01T00:39:53;9.62;83.90
68578;SHT31;61668;45.388;11.784;2023-04-01T00:42:19;9.60;84.02
68578;SHT31;61668;45.388;11.784;2023-04-01T00:44:45;9.57;84.10
68578;SHT31;61668;45.388;11.784;2023-04-01T00:47:16;9.54;84.10
68578;SHT31;61668;45.388;11.784;2023-04-01T00:49:44;9.53;84.20
68578;SHT31;61668;45.388;11.784;2023-04-01T00:52:14;9.50;84.25
68578;SHT31;61668;45.388;11.784;2023-04-01T00:54:45;9.48;84.30
68578;SHT31;61668;45.388;11.784;2023-04-01T00:57:15;9.46;84.30
68578;SHT31;61668;45.388;11.784;2023-04-01T01:00:03;9.43;84.30
68578;SHT31;61668;45.388;11.784;2023-04-01T01:02:32;9.41;84.31
68578;SHT31;61668;45.388;11.784;2023-04-01T01:05:00;9.39;84.30
68578;SHT31;61668;45.388;11.784;2023-04-01T01:07:35;9.37;84.30
68578;SHT31;61668;45.388;11.784;2023-04-01T01:10:19;9.34;84.35
68578;SHT31;61668;45.388;11.784;2023-04-01T01:15:41;9.27;84.54
68578;SHT31;61668;45.388;11.784;2023-04-01T01:24:13;9.18;85.01
68578;SHT31;61668;45.388;11.784;2023-04-01T01:27:06;9.15;85.16
68578;SHT31;61668;45.388;11.784;2023-04-01T01:32:16;9.09;85.46
68578;SHT31;61668;45.388;11.784;2023-04-01T01:35:18;9.04;85.45
68578;SHT31;61668;45.388;11.784;2023-04-01T01:37:59;8.98;85.66
68578;SHT31;61668;45.388;11.784;2023-04-01T01:40:37;8.93;85.75
68578;SHT31;61668;45.388;11.784;2023-04-01T01:43:09;8.90;85.88
68578;SHT31;61668;45.388;11.784;2023-04-01T01:45:40;8.89;85.98
68578;SHT31;61668;45.388;11.784;2023-04-01T01:48:10;8.87;86.23
68578;SHT31;61668;45.388;11.784;2023-04-01T01:50:37;8.87;86.30
68578;SHT31;61668;45.388;11.784;2023-04-01T01:53:05;8.85;86.25
68578;SHT31;61668;45.388;11.784;2023-04-01T01:55:37;8.84;86.30
68578;SHT31;61668;45.388;11.784;2023-04-01T01:58:09;8.81;86.30
68578;SHT31;61668;45.388;11.784;2023-04-01T02:00:42;8.80;86.37
68578;SHT31;61668;45.388;11.784;2023-04-01T02:03:14;8.78;86.44
68578;SHT31;61668;45.388;11.784;2023-04-01T02:05:40;8.76;86.58
68578;SHT31;61668;45.388;11.784;2023-04-01T02:08:08;8.74;86.64
68578;SHT31;61668;45.388;11.784;2023-04-01T02:10:43;8.71;86.67
68578;SHT31;61668;45.388;11.784;2023-04-01T02:13:16;8.69;86.79
68578;SHT31;61668;45.388;11.784;2023-04-01T02:15:52;8.68;86.94
68578;SHT31;61668;45.388;11.784;2023-04-01T02:18:24;8.69;87.03
68578;SHT31;61668;45.388;11.784;2023-04-01T02:20:49;8.68;87.14
68578;SHT31;61668;45.388;11.784;2023-04-01T02:23:16;8.70;87.22
68578;SHT31;61668;45.388;11.784;2023-04-01T02:25:42;8.70;87.22
68578;SHT31;61668;45.388;11.784;2023-04-01T02:28:09;8.69;87.40
68578;SHT31;61668;45.388;11.784;2023-04-01T02:30:36;8.68;87.22
68578;SHT31;61668;45.388;11.784;2023-04-01T02:33:06;8.67;87.05
68578;SHT31;61668;45.388;11.784;2023-04-01T02:35:33;8.66;87.02
68578;SHT31;61668;45.388;11.784;2023-04-01T02:38:02;8.66;87.08
68578;SHT31;61668;45.388;11.784;2023-04-01T02:40:28;8.64;87.10
68578;SHT31;61668;45.388;11.784;2023-04-01T02:42:54;8.66;87.24
68578;SHT31;61668;45.388;11.784;2023-04-01T02:45:20;8.67;87.44
68578;SHT31;61668;45.388;11.784;2023-04-01T02:47:45;8.69;87.57
68578;SHT31;61668;45.388;11.784;2023-04-01T02:50:11;8.70;87.61
68578;SHT31;61668;45.388;11.784;2023-04-01T02:52:37;8.71;87.60
68578;SHT31;61668;45.388;11.784;2023-04-01T02:55:03;8.74;87.62
68578;SHT31;61668;45.388;11.784;2023-04-01T02:57:29;8.76;87.70
68578;SHT31;61668;45.388;11.784;2023-04-01T02:59:55;8.79;87.63
68578;SHT31;61668;45.388;11.784;2023-04-01T03:02:20;8.80;87.53
68578;SHT31;61668;45.388;11.784;2023-04-01T03:04:46;8.80;87.47
68578;SHT31;61668;45.388;11.784;2023-04-01T03:07:11;8.80;87.40
68578;SHT31;61668;45.388;11.784;2023-04-01T03:09:38;8.81;87.32
68578;SHT31;61668;45.388;11.784;2023-04-01T03:12:04;8.82;87.31
68578;SHT31;61668;45.388;11.784;2023-04-01T03:14:30;8.82;87.30
68578;SHT31;61668;45.388;11.784;2023-04-01T03:16:56;8.81;87.24
68578;SHT31;61668;45.388;11.784;2023-04-01T03:19:22;8.81;87.17
68578;SHT31;61668;45.388;11.784;2023-04-01T03:21:47;8.79;87.07
68578;SHT31;61668;45.388;11.784;2023-04-01T03:24:13;8.76;86.99
68578;SHT31;61668;45.388;11.784;2023-04-01T03:26:38;8.74;86.90
68578;SHT31;61668;45.388;11.784;2023-04-01T03:29:05;8.73;86.80
68578;SHT31;61668;45.388;11.784;2023-04-01T03:31:30;8.71;86.76
68578;SHT31;61668;45.388;11.784;2023-04-01T03:33:56;8.68;86.68
68578;SHT31;61668;45.388;11.784;2023-04-01T03:36:22;8.64;86.53
68578;SHT31;61668;45.388;11.784;2023-04-01T03:38:47;8.59;86.34
68578;SHT31;61668;45.388;11.784;2023-04-01T03:41:14;8.54;86.30
68578;SHT31;61668;45.388;11.784;2023-04-01T03:43:41;8.50;86.31
68578;SHT31;61668;45.388;11.784;2023-04-01T03:46:08;8.46;86.32
68578;SHT31;61668;45.388;11.784;2023-04-01T03:48:34;8.43;86.30
68578;SHT31;61668;45.388;11.784;2023-04-01T03:51:06;8.39;86.22
68578;SHT31;61668;45.388;11.784;2023-04-01T03:53:32;8.33;86.21
68578;SHT31;61668;45.388;11.784;2023-04-01T03:55:58;8.27;86.21
68578;SHT31;61668;45.388;11.784;2023-04-01T03:58:23;8.22;86.21
68578;SHT31;61668;45.388;11.784;2023-04-01T04:00:49;8.17;86.16
68578;SHT31;61668;45.388;11.784;2023-04-01T04:03:14;8.12;86.10
68578;SHT31;61668;45.388;11.784;2023-04-01T04:05:47;8.07;86.13
68578;SHT31;61668;45.388;11.784;2023-04-01T04:08:13;8.05;86.20
68578;SHT31;61668;45.388;11.784;2023-04-01T04:10:39;8.03;86.21
68578;SHT31;61668;45.388;11.784;2023-04-01T04:13:05;7.99;86.20
68578;SHT31;61668;45.388;11.784;2023-04-01T04:15:30;7.96;86.19
68578;SHT31;61668;45.388;11.784;2023-04-01T04:17:56;7.93;86.20
68578;SHT31;61668;45.388;11.784;2023-04-01T04:20:21;7.90;86.17
68578;SHT31;61668;45.388;11.784;2023-04-01T04:22:47;7.86;86.08
68578;SHT31;61668;45.388;11.784;2023-04-01T04:25:12;7.83;86.02
68578;SHT31;61668;45.388;11.784;2023-04-01T04:27:38;7.81;86.00
68578;SHT31;61668;45.388;11.784;2023-04-01T04:30:04;7.78;85.95
68578;SHT31;61668;45.388;11.784;2023-04-01T04:32:32;7.74;85.90
68578;SHT31;61668;45.388;11.784;2023-04-01T04:34:57;7.70;85.93
68578;SHT31;61668;45.388;11.784;2023-04-01T04:37:23;7.68;85.98
68578;SHT31;61668;45.388;11.784;2023-04-01T04:39:50;7.66;86.02
68578;SHT31;61668;45.388;11.784;2023-04-01T04:42:17;7.63;86.10
68578;SHT31;61668;45.388;11.784;2023-04-01T04:44:42;7.61;86.15
68578;SHT31;61668;45.388;11.784;2023-04-01T04:47:08;7.61;86.19
68578;SHT31;61668;45.388;11.784;2023-04-01T04:49:34;7.59;86.20
68578;SHT31;61668;45.388;11.784;2023-04-01T04:52:00;7.58;86.20
68578;SHT31;61668;45.388;11.784;2023-04-01T04:54:25;7.57;86.20
68578;SHT31;61668;45.388;11.784;2023-04-01T04:56:52;7.55;86.25
68578;SHT31;61668;45.388;11.784;2023-04-01T04:59:18;7.53;86.29
68578;SHT31;61668;45.388;11.784;2023-04-01T05:01:44;7.51;86.30
68578;SHT31;61668;45.388;11.784;2023-04-01T05:04:10;7.50;86.38
68578;SHT31;61668;45.388;11.784;2023-04-01T05:06:36;7.47;86.39
68578;SHT31;61668;45.388;11.784;2023-04-01T05:09:01;7.47;86.40
68578;SHT31;61668;45.388;11.784;2023-04-01T05:11:27;7.47;86.54
68578;SHT31;61668;45.388;11.784;2023-04-01T05:13:53;7.48;86.64
68578;SHT31;61668;45.388;11.784;2023-04-01T05:16:19;7.48;86.67
68578;SHT31;61668;45.388;11.784;2023-04-01T05:18:46;7.49;86.70
68578;SHT31;61668;45.388;11.784;2023-04-01T05:21:13;7.51;86.70
68578;SHT31;61668;45.388;11.784;2023-04-01T05:23:40;7.54;86.73
68578;SHT31;61668;45.388;11.784;2023-04-01T05:26:07;7.57;86.80
68578;SHT31;61668;45.388;11.784;2023-04-01T05:28:37;7.61;86.89
68578;SHT31;61668;45.388;11.784;2023-04-01T05:31:03;7.65;86.89
68578;SHT31;61668;45.388;11.784;2023-04-01T05:33:30;7.70;86.88
68578;SHT31;61668;45.388;11.784;2023-04-01T05:36:05;7.80;86.90
68578;SHT31;61668;45.388;11.784;2023-04-01T05:38:41;7.89;86.94
68578;SHT31;61668;45.388;11.784;2023-04-01T05:41:08;7.97;87.00
68578;SHT31;61668;45.388;11.784;2023-04-01T05:43:37;8.06;87.00
68578;SHT31;61668;45.388;11.784;2023-04-01T05:46:04;8.13;86.98
68578;SHT31;61668;45.388;11.784;2023-04-01T05:48:33;8.21;86.92
68578;SHT31;61668;45.388;11.784;2023-04-01T05:51:02;8.28;86.83
68578;SHT31;61668;45.388;11.784;2023-04-01T05:53:29;8.36;86.86
68578;SHT31;61668;45.388;11.784;2023-04-01T05:55:55;8.48;86.92
68578;SHT31;61668;45.388;11.784;2023-04-01T05:58:21;8.58;86.92
68578;SHT31;61668;45.388;11.784;2023-04-01T06:00:47;8.71;87.00
68578;SHT31;61668;45.388;11.784;2023-04-01T06:03:12;8.86;87.00
68578;SHT31;61668;45.388;11.784;2023-04-01T06:05:40;9.03;86.95
68578;SHT31;61668;45.388;11.784;2023-04-01T06:08:17;9.23;86.82
68578;SHT31;61668;45.388;11.784;2023-04-01T06:13:53;9.68;86.39
68578;SHT31;61668;45.388;11.784;2023-04-01T06:20:10;10.31;85.62
68578;SHT31;61668;45.388;11.784;2023-04-01T06:28:46;11.41;83.08
68578;SHT31;61668;45.388;11.784;2023-04-01T06:39:51;13.02;79.92
68578;SHT31;61668;45.388;11.784;2023-04-01T06:43:00;13.49;78.38
68578;SHT31;61668;45.388;11.784;2023-04-01T06:46:01;13.53;78.07
68578;SHT31;61668;45.388;11.784;2023-04-01T06:54:32;14.48;75.91
68578;SHT31;61668;45.388;11.784;2023-04-01T06:57:49;14.97;74.55
68578;SHT31;61668;45.388;11.784;2023-04-01T07:00:13;15.57;73.30
68578;SHT31;61668;45.388;11.784;2023-04-01T07:02:48;15.86;72.51
68578;SHT31;61668;45.388;11.784;2023-04-01T07:05:41;16.31;71.59
68578;SHT31;61668;45.388;11.784;2023-04-01T07:08:10;16.81;70.09
68578;SHT31;61668;45.388;11.784;2023-04-01T07:10:53;16.72;69.91
68578;SHT31;61668;45.388;11.784;2023-04-01T07:13:39;16.45;70.37
68578;SHT31;61668;45.388;11.784;2023-04-01T07:16:16;16.23;70.50
68578;SHT31;61668;45.388;11.784;2023-04-01T07:21:29;16.14;70.38
68578;SHT31;61668;45.388;11.784;2023-04-01T07:24:05;17.07;68.53
68578;SHT31;61668;45.388;11.784;2023-04-01T07:26:40;17.78;67.10
68578;SHT31;61668;45.388;11.784;2023-04-01T07:29:10;18.51;65.60
68578;SHT31;61668;45.388;11.784;2023-04-01T07:34:49;19.96;62.24
68578;SHT31;61668;45.388;11.784;2023-04-01T07:37:29;20.60;60.89
68578;SHT31;61668;45.388;11.784;2023-04-01T07:46:00;22.54;56.79
68578;SHT31;61668;45.388;11.784;2023-04-01T08:17:46;26.58;45.96
68578;SHT31;61668;45.388;11.784;2023-04-01T08:20:39;26.92;44.69
68578;SHT31;61668;45.388;11.784;2023-04-01T08:23:26;27.12;44.01
68578;SHT31;61668;45.388;11.784;2023-04-01T08:33:52;27.96;40.53
68578;SHT31;61668;45.388;11.784;2023-04-01T08:44:46;28.68;39.50
68578;SHT31;61668;45.388;11.784;2023-04-01T09:12:02;27.84;39.01
68578;SHT31;61668;45.388;11.784;2023-04-01T09:33:04;27.78;39.59
68578;SHT31;61668;45.388;11.784;2023-04-01T09:54:59;25.61;41.39
68578;SHT31;61668;45.388;11.784;2023-04-01T10:06:28;24.33;43.25
68578;SHT31;61668;45.388;11.784;2023-04-01T10:09:34;24.19;43.22
68578;SHT31;61668;45.388;11.784;2023-04-01T10:35:56;23.73;43.93
68578;SHT31;61668;45.388;11.784;2023-04-01T10:53:34;23.30;43.98
68578;SHT31;61668;45.388;11.784;2023-04-01T11:05:34;23.35;44.32
68578;SHT31;61668;45.388;11.784;2023-04-01T11:20:35;22.86;44.19
68578;SHT31;61668;45.388;11.784;2023-04-01T11:35:24;22.58;44.99
68578;SHT31;61668;45.388;11.784;2023-04-01T11:38:18;22.58;44.74
68578;SHT31;61668;45.388;11.784;2023-04-01T11:43:48;22.66;44.83
68578;SHT31;61668;45.388;11.784;2023-04-01T11:46:38;22.66;45.10
68578;SHT31;61668;45.388;11.784;2023-04-01T11:49:20;22.69;44.95
68578;SHT31;61668;45.388;11.784;2023-04-01T11:52:34;22.71;44.72
68578;SHT31;61668;45.388;11.784;2023-04-01T12:04:44;22.75;45.25
68578;SHT31;61668;45.388;11.784;2023-04-01T12:24:34;22.60;45.90
68578;SHT31;61668;45.388;11.784;2023-04-01T12:27:43;22.37;45.93
68578;SHT31;61668;45.388;11.784;2023-04-01T12:30:38;22.16;46.26
68578;SHT31;61668;45.388;11.784;2023-04-01T12:39:28;21.84;46.75
68578;SHT31;61668;45.388;11.784;2023-04-01T12:42:44;21.77;46.91
68578;SHT31;61668;45.388;11.784;2023-04-01T12:52:14;21.63;47.23
68578;SHT31;61668;45.388;11.784;2023-04-01T13:01:49;21.50;47.86
68578;SHT31;61668;45.388;11.784;2023-04-01T13:08:21;21.40;48.03
68578;SHT31;61668;45.388;11.784;2023-04-01T13:17:22;21.34;47.60
68578;SHT31;61668;45.388;11.784;2023-04-01T13:20:06;21.37;47.83
68578;SHT31;61668;45.388;11.784;2023-04-01T13:35:46;21.62;47.38
68578;SHT31;61668;45.388;11.784;2023-04-01T13:38:32;21.59;47.86
68578;SHT31;61668;45.388;11.784;2023-04-01T13:44:00;21.48;47.76
68578;SHT31;61668;45.388;11.784;2023-04-01T14:04:08;21.58;46.85
68578;SHT31;61668;45.388;11.784;2023-04-01T14:07:13;21.55;46.80
68578;SHT31;61668;45.388;11.784;2023-04-01T14:27:56;21.40;45.88
68578;SHT31;61668;45.388;11.784;2023-04-01T14:50:27;21.32;44.75
68578;SHT31;61668;45.388;11.784;2023-04-01T14:52:58;21.23;43.46
68578;SHT31;61668;45.388;11.784;2023-04-01T14:55:52;21.14;43.43
68578;SHT31;61668;45.388;11.784;2023-04-01T14:58:22;21.05;44.24
68578;SHT31;61668;45.388;11.784;2023-04-01T15:24:41;20.36;51.73
68578;SHT31;61668;45.388;11.784;2023-04-01T15:29:59;20.28;50.96
68578;SHT31;61668;45.388;11.784;2023-04-01T15:38:06;20.05;52.14
68578;SHT31;61668;45.388;11.784;2023-04-01T15:41:11;20.00;52.48
68578;SHT31;61668;45.388;11.784;2023-04-01T15:43:46;19.97;52.31
68578;SHT31;61668;45.388;11.784;2023-04-01T15:57:28;19.84;51.86
68578;SHT31;61668;45.388;11.784;2023-04-01T16:22:45;19.66;51.68
68578;SHT31;61668;45.388;11.784;2023-04-01T16:25:39;19.61;52.18
68578;SHT31;61668;45.388;11.784;2023-04-01T16:28:52;19.59;52.49
68578;SHT31;61668;45.388;11.784;2023-04-01T16:31:48;19.53;52.59
68578;SHT31;61668;45.388;11.784;2023-04-01T16:37:01;19.39;54.43
68578;SHT31;61668;45.388;11.784;2023-04-01T16:42:49;19.19;55.02
68578;SHT31;61668;45.388;11.784;2023-04-01T16:57:22;18.77;55.77
68578;SHT31;61668;45.388;11.784;2023-04-01T17:02:52;18.59;56.13
68578;SHT31;61668;45.388;11.784;2023-04-01T17:11:38;18.26;56.82
68578;SHT31;61668;45.388;11.784;2023-04-01T17:14:17;18.17;56.98
68578;SHT31;61668;45.388;11.784;2023-04-01T17:17:09;18.09;57.41
68578;SHT31;61668;45.388;11.784;2023-04-01T17:25:48;17.73;59.34
68578;SHT31;61668;45.388;11.784;2023-04-01T17:35:29;17.36;60.97
68578;SHT31;61668;45.388;11.784;2023-04-01T17:46:41;16.95;62.60
68578;SHT31;61668;45.388;11.784;2023-04-01T17:52:04;16.70;63.14
68578;SHT31;61668;45.388;11.784;2023-04-01T17:54:56;16.57;63.39
68578;SHT31;61668;45.388;11.784;2023-04-01T18:04:01;16.13;64.21
68578;SHT31;61668;45.388;11.784;2023-04-01T18:06:47;16.00;64.46
68578;SHT31;61668;45.388;11.784;2023-04-01T18:12:40;15.73;65.04
68578;SHT31;61668;45.388;11.784;2023-04-01T18:21:29;15.41;66.12
68578;SHT31;61668;45.388;11.784;2023-04-01T18:24:35;15.30;66.61
68578;SHT31;61668;45.388;11.784;2023-04-01T18:27:41;15.17;66.84
68578;SHT31;61668;45.388;11.784;2023-04-01T18:30:28;15.09;67.16
68578;SHT31;61668;45.388;11.784;2023-04-01T18:32:58;15.00;67.27
68578;SHT31;61668;45.388;11.784;2023-04-01T18:38:45;14.83;67.80
68578;SHT31;61668;45.388;11.784;2023-04-01T18:41:27;14.76;68.05
68578;SHT31;61668;45.388;11.784;2023-04-01T18:50:32;14.53;68.93
68578;SHT31;61668;45.388;11.784;2023-04-01T18:56:38;14.38;69.40
68578;SHT31;61668;45.388;11.784;2023-04-01T19:02:08;14.27;69.40
68578;SHT31;61668;45.388;11.784;2023-04-01T19:05:08;14.22;69.49
68578;SHT31;61668;45.388;11.784;2023-04-01T19:07:41;14.17;69.47
68578;SHT31;61668;45.388;11.784;2023-04-01T19:21:33;13.95;69.61
68578;SHT31;61668;45.388;11.784;2023-04-01T19:24:33;13.92;69.77
68578;SHT31;61668;45.388;11.784;2023-04-01T19:27:41;13.87;69.89
68578;SHT31;61668;45.388;11.784;2023-04-01T19:31:19;13.84;69.91
68578;SHT31;61668;45.388;11.784;2023-04-01T19:42:29;13.77;70.06
68578;SHT31;61668;45.388;11.784;2023-04-01T19:45:24;13.76;70.07
68578;SHT31;61668;45.388;11.784;2023-04-01T19:48:04;13.74;70.02
68578;SHT31;61668;45.388;11.784;2023-04-01T19:56:47;13.71;70.13
68578;SHT31;61668;45.388;11.784;2023-04-01T19:59:47;13.69;70.20
68578;SHT31;61668;45.388;11.784;2023-04-01T20:02:58;13.67;70.16
68578;SHT31;61668;45.388;11.784;2023-04-01T20:08:41;13.64;70.10
68578;SHT31;61668;45.388;11.784;2023-04-01T20:15:04;13.58;70.02
68578;SHT31;61668;45.388;11.784;2023-04-01T20:27:58;13.52;69.34
68578;SHT31;61668;45.388;11.784;2023-04-01T20:34:00;13.50;68.87
68578;SHT31;61668;45.388;11.784;2023-04-01T21:11:25;13.19;68.53
68578;SHT31;61668;45.388;11.784;2023-04-01T21:31:32;12.72;72.89
68578;SHT31;61668;45.388;11.784;2023-04-01T21:35:04;12.65;73.24
68578;SHT31;61668;45.388;11.784;2023-04-01T21:53:00;12.31;75.56
68578;SHT31;61668;45.388;11.784;2023-04-01T21:55:31;12.27;75.70
68578;SHT31;61668;45.388;11.784;2023-04-01T22:00:59;12.24;75.82
68578;SHT31;61668;45.388;11.784;2023-04-01T22:07:14;12.20;76.71
68578;SHT31;61668;45.388;11.784;2023-04-01T22:09:47;12.17;77.16
68578;SHT31;61668;45.388;11.784;2023-04-01T22:13:10;12.16;77.35
68578;SHT31;61668;45.388;11.784;2023-04-01T22:19:06;12.11;77.51
68578;SHT31;61668;45.388;11.784;2023-04-01T22:21:44;12.11;77.62
68578;SHT31;61668;45.388;11.784;2023-04-01T22:27:24;12.09;77.78
68578;SHT31;61668;45.388;11.784;2023-04-01T22:30:22;12.06;77.97
68578;SHT31;61668;45.388;11.784;2023-04-01T22:32:52;12.06;78.07
68578;SHT31;61668;45.388;11.784;2023-04-01T22:35:55;12.05;78.02
68578;SHT31;61668;45.388;11.784;2023-04-01T22:38:47;12.05;77.93
68578;SHT31;61668;45.388;11.784;2023-04-01T22:41:37;12.04;78.00
68578;SHT31;61668;45.388;11.784;2023-04-01T22:44:16;12.03;78.11
68578;SHT31;61668;45.388;11.784;2023-04-01T22:47:20;12.02;78.36
68578;SHT31;61668;45.388;11.784;2023-04-01T22:50:11;12.01;78.52
68578;SHT31;61668;45.388;11.784;2023-04-01T22:56:19;12.00;78.40
68578;SHT31;61668;45.388;11.784;2023-04-01T22:58:54;12.00;78.54
68578;SHT31;61668;45.388;11.784;2023-04-01T23:01:33;12.02;78.71
68578;SHT31;61668;45.388;11.784;2023-04-01T23:04:05;12.03;78.90
68578;SHT31;61668;45.388;11.784;2023-04-01T23:06:38;12.04;78.91
68578;SHT31;61668;45.388;11.784;2023-04-01T23:09:11;12.04;78.81
68578;SHT31;61668;45.388;11.784;2023-04-01T23:11:46;12.05;78.88
68578;SHT31;61668;45.388;11.784;2023-04-01T23:14:41;12.05;78.88
68578;SHT31;61668;45.388;11.784;2023-04-01T23:20:47;12.07;79.16
68578;SHT31;61668;45.388;11.784;2023-04-01T23:26:38;12.09;78.99
68578;SHT31;61668;45.388;11.784;2023-04-01T23:29:15;12.11;79.01
68578;SHT31;61668;45.388;11.784;2023-04-01T23:31:44;12.11;78.94
68578;SHT31;61668;45.388;11.784;2023-04-01T23:36:49;12.12;78.86
68578;SHT31;61668;45.388;11.784;2023-04-01T23:42:23;12.13;78.78
68578;SHT31;61668;45.388;11.784;2023-04-01T23:45:03;12.13;78.76
68578;SHT31;61668;45.388;11.784;2023-04-01T23:47:42;12.14;78.79
68578;SHT31;61668;45.388;11.784;2023-04-01T23:53:28;12.14;78.80
68578;SHT31;61668;45.388;11.784;2023-04-01T23:55:44;12.15;78.75
68578;SHT31;61668;45.388;11.784;2023-04-01T23:58:14;12.15;78.82
